Time;durP1;ratioP1;P1;durP2;ratioP2;P2;SDS_P1;SDS_P2;PMS_P1;PMS_P2;Temp;Humidity;BMP_temperature;BMP_pressure;BME280_temperature;BME280_humidity;BME280_pressure;Samples;Min_cycle;Max_cycle;Signal;HPM_P1;HPM_P2
2024/02/10 00:01:54;;;;;;;;;;;11.20;99.90;;;;;;6664096;88;20175;-77
2024/02/10 00:11:58;;;;;;;;;;;11.10;99.90;;;;;;6662286;88;20117;-78
2024/02/10 00:21:58;;;;;;;;;;;11.00;99.90;;;;;;6682742;88;20128;-79
2024/02/10 00:32:00;;;;;;;;;;;11.00;99.90;;;;;;6754326;88;20136;-78
2024/02/10 00:42:00;;;;;;;;;;;11.00;99.90;;;;;;6742514;87;20066;-78
2024/02/10 00:52:01;;;;;;;;;;;10.90;99.90;;;;;;6751060;87;20069;-78
2024/02/10 01:02:05;;;;;;;;;;;10.80;99.90;;;;;;6749921;87;20056;-78
2024/02/10 01:12:05;;;;;;;;;;;10.70;99.90;;;;;;6748255;88;20593;-78
2024/02/10 01:32:09;;;;;;;;;;;10.70;99.90;;;;;;6731135;88;20528;-74
2024/02/10 01:42:10;;;;;;;;;;;10.70;99.90;;;;;;6722769;88;20148;-75
2024/02/10 01:52:12;;;;;;;;;;;10.60;99.90;;;;;;6726586;88;20071;-75
2024/02/10 02:02:14;;;;;;;;;;;10.60;99.90;;;;;;6730107;88;20514;-75
2024/02/10 02:12:15;;;;;;;;;;;10.50;99.90;;;;;;6739712;88;20095;-75
2024/02/10 02:22:16;;;;;;;;;;;10.50;99.90;;;;;;6729917;88;20625;-75
2024/02/10 02:32:16;;;;;;;;;;;10.40;99.90;;;;;;6727775;88;20062;-75
2024/02/10 02:42:17;;;;;;;;;;;10.50;99.90;;;;;;6730086;88;20058;-75
2024/02/10 02:52:17;;;;;;;;;;;10.50;99.90;;;;;;6730358;88;20217;-75
2024/02/10 03:02:18;;;;;;;;;;;10.50;99.90;;;;;;6725739;88;20065;-76
2024/02/10 03:12:18;;;;;;;;;;;10.50;99.90;;;;;;6727497;88;20634;-76
2024/02/10 03:22:19;;;;;;;;;;;10.50;99.90;;;;;;6722881;88;20061;-75
2024/02/10 03:32:19;;;;;;;;;;;10.40;99.90;;;;;;6726755;88;20062;-76
2024/02/10 03:42:20;;;;;;;;;;;10.40;99.90;;;;;;6728782;88;20102;-78
2024/02/10 03:52:20;;;;;;;;;;;10.30;99.90;;;;;;6727281;88;20076;-76
2024/02/10 04:02:21;;;;;;;;;;;10.40;99.90;;;;;;6726776;88;20079;-76
2024/02/10 04:12:21;;;;;;;;;;;10.50;99.90;;;;;;6724122;88;20072;-77
2024/02/10 04:22:23;;;;;;;;;;;10.40;99.90;;;;;;6735834;88;20124;-74
2024/02/10 04:32:23;;;;;;;;;;;10.20;99.90;;;;;;6731563;88;20111;-74
2024/02/10 04:42:24;;;;;;;;;;;10.10;99.90;;;;;;6732523;88;20254;-75
2024/02/10 04:52:24;;;;;;;;;;;10.00;99.90;;;;;;6735504;88;20576;-75
2024/02/10 05:02:25;;;;;;;;;;;9.80;99.90;;;;;;6729095;88;20496;-74
2024/02/10 05:12:25;;;;;;;;;;;9.80;99.90;;;;;;6733602;88;20119;-74
2024/02/10 05:22:26;;;;;;;;;;;9.80;99.90;;;;;;6730461;88;20069;-76
2024/02/10 05:32:28;;;;;;;;;;;9.70;99.90;;;;;;6725099;88;20080;-76
2024/02/10 05:42:28;;;;;;;;;;;9.50;99.90;;;;;;6726752;88;20695;-76
2024/02/10 05:52:29;;;;;;;;;;;9.40;99.90;;;;;;6729557;88;20133;-76
2024/02/10 06:02:29;;;;;;;;;;;9.40;99.90;;;;;;6725271;88;20517;-77
2024/02/10 06:12:30;;;;;;;;;;;9.20;99.90;;;;;;6731241;88;20152;-77
2024/02/10 06:22:32;;;;;;;;;;;9.20;99.90;;;;;;6728948;88;20637;-76
2024/02/10 06:32:36;;;;;;;;;;;9.20;99.90;;;;;;6724236;88;20068;-77
2024/02/10 06:42:37;;;;;;;;;;;9.00;99.90;;;;;;6724399;88;20050;-78
2024/02/10 06:52:37;;;;;;;;;;;9.10;99.90;;;;;;6722799;88;20071;-76
2024/02/10 07:02:38;;;;;;;;;;;8.90;99.90;;;;;;6716782;88;20607;-77
2024/02/10 07:12:42;;;;;;;;;;;8.90;99.90;;;;;;6722127;88;20230;-76
2024/02/10 07:22:43;;;;;;;;;;;8.90;99.90;;;;;;6726700;88;20095;-77
2024/02/10 07:32:47;;;;;;;;;;;8.90;99.90;;;;;;6725163;88;20171;-76
2024/02/10 07:42:49;;;;;;;;;;;9.00;99.90;;;;;;6724897;88;20051;-76
2024/02/10 08:03:32;;;;;;;;;;;9.10;99.90;;;;;;6728535;88;20078;-77
2024/02/10 08:13:32;;;;;;;;;;;9.50;99.90;;;;;;6722786;88;20624;-77
2024/02/10 08:23:34;;;;;;;;;;;9.90;99.90;;;;;;6725742;88;20148;-76
2024/02/10 08:33:35;;;;;;;;;;;10.20;99.90;;;;;;6719369;88;20214;-79
2024/02/10 08:43:47;;;;;;;;;;;10.50;99.90;;;;;;6714873;88;20133;-77
2024/02/10 08:53:48;;;;;;;;;;;11.00;99.90;;;;;;6716404;88;20844;-74
2024/02/10 09:03:53;;;;;;;;;;;11.40;99.90;;;;;;6716831;88;20046;-75
2024/02/10 09:13:53;;;;;;;;;;;11.80;99.90;;;;;;6713607;88;20077;-77
2024/02/10 09:23:54;;;;;;;;;;;12.00;99.90;;;;;;6721383;88;20245;-77
2024/02/10 09:33:54;;;;;;;;;;;12.50;99.90;;;;;;6720790;88;20237;-76
2024/02/10 09:43:55;;;;;;;;;;;12.70;99.90;;;;;;6717658;88;20142;-76
2024/02/10 09:53:55;;;;;;;;;;;13.10;99.90;;;;;;6717202;88;20071;-76
2024/02/10 10:03:56;;;;;;;;;;;13.50;99.90;;;;;;6722359;88;20121;-75
2024/02/10 10:13:57;;;;;;;;;;;13.70;99.90;;;;;;6716834;88;20063;-75
2024/02/10 10:23:57;;;;;;;;;;;13.40;99.90;;;;;;6717818;88;20059;-77
2024/02/10 10:33:58;;;;;;;;;;;14.40;99.90;;;;;;6723036;88;20574;-78
2024/02/10 10:44:01;;;;;;;;;;;14.40;99.90;;;;;;6717461;88;20457;-77
2024/02/10 10:54:03;;;;;;;;;;;14.50;99.90;;;;;;6714699;88;20076;-77
2024/02/10 11:04:04;;;;;;;;;;;14.80;99.90;;;;;;6723407;88;20537;-77
2024/02/10 11:14:10;;;;;;;;;;;14.50;99.90;;;;;;6720129;88;20059;-75
2024/02/10 11:24:15;;;;;;;;;;;14.40;99.90;;;;;;6721010;88;20088;-77
2024/02/10 11:34:16;;;;;;;;;;;14.30;99.90;;;;;;6725964;88;20088;-76
2024/02/10 11:44:17;;;;;;;;;;;14.50;99.90;;;;;;6720234;88;20547;-77
2024/02/10 11:54:17;;;;;;;;;;;14.20;99.90;;;;;;6722625;88;20055;-76
2024/02/10 12:04:18;;;;;;;;;;;13.90;99.90;;;;;;6720585;88;20050;-76
2024/02/10 12:14:21;;;;;;;;;;;13.60;99.90;;;;;;6717945;88;20047;-76
2024/02/10 12:24:21;;;;;;;;;;;13.20;99.90;;;;;;6715884;88;20059;-77
2024/02/10 12:34:22;;;;;;;;;;;12.80;99.90;;;;;;6712140;88;20499;-77
2024/02/10 12:44:22;;;;;;;;;;;12.70;99.90;;;;;;6715145;88;20079;-78
2024/02/10 12:54:27;;;;;;;;;;;12.60;99.90;;;;;;6714958;88;20094;-77
2024/02/10 13:04:35;;;;;;;;;;;12.50;99.90;;;;;;6704011;88;20051;-77
2024/02/10 13:14:35;;;;;;;;;;;12.60;99.90;;;;;;6707971;88;20554;-77
2024/02/10 13:24:36;;;;;;;;;;;13.00;99.90;;;;;;6717759;88;20184;-77
2024/02/10 13:34:45;;;;;;;;;;;13.00;99.90;;;;;;6714195;88;20054;-77
2024/02/10 14:05:41;;;;;;;;;;;13.10;99.90;;;;;;6726541;88;20070;-73
2024/02/10 14:15:52;;;;;;;;;;;13.00;99.90;;;;;;6730176;88;20222;-76
2024/02/10 14:25:53;;;;;;;;;;;13.00;99.90;;;;;;6732889;88;20243;-77
2024/02/10 14:36:14;;;;;;;;;;;13.00;99.90;;;;;;6740189;88;20143;-78
2024/02/10 14:46:14;;;;;;;;;;;13.20;99.90;;;;;;6739686;88;20049;-78
2024/02/10 14:56:21;;;;;;;;;;;13.30;99.90;;;;;;6719714;88;20532;-77
2024/02/10 15:06:23;;;;;;;;;;;13.40;99.90;;;;;;6719016;88;20192;-77
2024/02/10 15:16:24;;;;;;;;;;;13.30;99.90;;;;;;6728591;88;20074;-77
2024/02/10 15:26:25;;;;;;;;;;;13.00;99.90;;;;;;6729887;88;20059;-77
2024/02/10 15:36:36;;;;;;;;;;;12.70;99.90;;;;;;6721033;88;20067;-77
2024/02/10 15:46:40;;;;;;;;;;;12.50;99.90;;;;;;6726440;88;20079;-77
2024/02/10 15:56:43;;;;;;;;;;;12.30;99.90;;;;;;6726054;88;20112;-77
2024/02/10 16:06:46;;;;;;;;;;;12.00;99.90;;;;;;6728619;88;20071;-76
2024/02/10 16:16:47;;;;;;;;;;;11.80;99.90;;;;;;6727599;88;20566;-77
2024/02/10 16:26:47;;;;;;;;;;;11.70;99.90;;;;;;6725640;88;20058;-77
2024/02/10 16:36:48;;;;;;;;;;;11.70;99.90;;;;;;6727016;88;20082;-78
2024/02/10 16:46:48;;;;;;;;;;;11.50;99.90;;;;;;6731084;88;20051;-77
2024/02/10 16:56:52;;;;;;;;;;;11.40;99.90;;;;;;6725923;88;20187;-77
2024/02/10 17:06:55;;;;;;;;;;;11.20;99.90;;;;;;6732127;88;20116;-76
2024/02/10 17:16:56;;;;;;;;;;;11.20;99.90;;;;;;6736320;88;20066;-76
2024/02/10 17:26:58;;;;;;;;;;;11.10;99.90;;;;;;6730891;88;20084;-74
2024/02/10 17:36:58;;;;;;;;;;;11.10;99.90;;;;;;6726762;88;20063;-76
2024/02/10 17:46:59;;;;;;;;;;;11.00;99.90;;;;;;6722786;88;20079;-75
2024/02/10 17:57:00;;;;;;;;;;;11.00;99.90;;;;;;6731768;88;20187;-76
2024/02/10 18:07:01;;;;;;;;;;;11.00;99.90;;;;;;6730795;88;20067;-76
2024/02/10 18:17:02;;;;;;;;;;;10.90;99.90;;;;;;6716780;88;20484;-76
2024/02/10 18:27:04;;;;;;;;;;;10.90;99.90;;;;;;6714405;88;20234;-78
2024/02/10 18:37:04;;;;;;;;;;;10.80;99.90;;;;;;6715981;88;20171;-80
2024/02/10 18:47:05;;;;;;;;;;;10.90;99.90;;;;;;6723414;88;20587;-79
2024/02/10 18:57:07;;;;;;;;;;;10.80;99.90;;;;;;6722626;88;20124;-77
2024/02/10 19:07:11;;;;;;;;;;;10.90;99.90;;;;;;6727603;88;20065;-77
2024/02/10 19:17:16;;;;;;;;;;;10.70;99.90;;;;;;6720754;88;20058;-77
2024/02/10 19:27:17;;;;;;;;;;;10.60;99.90;;;;;;6725610;88;20124;-77
2024/02/10 19:37:17;;;;;;;;;;;10.60;99.90;;;;;;6729607;88;20067;-78
2024/02/10 19:47:20;;;;;;;;;;;10.60;99.90;;;;;;6730849;88;20212;-78
2024/02/10 19:57:22;;;;;;;;;;;10.50;99.90;;;;;;6744214;88;20236;-77
2024/02/10 20:18:25;;;;;;;;;;;10.60;99.90;;;;;;6728232;88;20084;-78
2024/02/10 20:28:26;;;;;;;;;;;10.40;99.90;;;;;;6737424;88;20523;-78
2024/02/10 20:38:27;;;;;;;;;;;10.40;99.90;;;;;;6748102;88;20116;-75
2024/02/10 20:48:28;;;;;;;;;;;10.40;99.90;;;;;;6738832;88;20066;-79
2024/02/10 20:58:29;;;;;;;;;;;10.30;99.90;;;;;;6736918;88;20564;-77
2024/02/10 21:08:34;;;;;;;;;;;10.30;99.90;;;;;;6739437;88;20061;-76
2024/02/10 21:18:35;;;;;;;;;;;10.30;99.90;;;;;;6734460;88;20094;-78
2024/02/10 21:28:35;;;;;;;;;;;10.30;99.90;;;;;;6734517;88;20083;-79
2024/02/10 21:38:38;;;;;;;;;;;10.30;99.90;;;;;;6736120;88;20629;-79
2024/02/10 21:48:39;;;;;;;;;;;10.20;99.90;;;;;;6736926;88;20066;-80
2024/02/10 21:58:42;;;;;;;;;;;10.10;99.90;;;;;;6735940;88;20083;-78
2024/02/10 22:08:43;;;;;;;;;;;10.20;99.90;;;;;;6736100;88;20066;-79
2024/02/10 22:18:44;;;;;;;;;;;10.10;99.90;;;;;;6734684;88;20161;-77
2024/02/10 22:28:47;;;;;;;;;;;10.10;99.90;;;;;;6717941;88;20218;-77
2024/02/10 22:38:48;;;;;;;;;;;10.00;99.90;;;;;;6717794;88;20456;-77
2024/02/10 22:48:49;;;;;;;;;;;9.80;99.90;;;;;;6716944;88;20164;-79
2024/02/10 22:58:49;;;;;;;;;;;9.90;99.90;;;;;;6713881;88;20224;-79
2024/02/10 23:08:50;;;;;;;;;;;9.90;99.90;;;;;;6732261;88;20204;-79
2024/02/10 23:18:50;;;;;;;;;;;9.80;99.90;;;;;;6740594;88;20070;-78
2024/02/10 23:28:53;;;;;;;;;;;9.80;99.90;;;;;;6738759;88;20620;-78
2024/02/10 23:38:59;;;;;;;;;;;9.70;99.90;;;;;;6738898;88;20059;-78
2024/02/10 23:48:59;;;;;;;;;;;9.80;99.90;;;;;;6735680;88;20474;-78
2024/02/10 23:59:02;;;;;;;;;;;9.90;99.90;;;;;;6725445;88;20089;-78
